sensor_id;sensor_type;location;lat;lon;timestamp;P1;durP1;ratioP1;P2;durP2;ratioP2
5841;SDS011;2947;52.276;9.946;2022-09-27T00:00:27;2.70;;;1.57;;
5841;SDS011;2947;52.276;9.946;2022-09-27T00:02:53;3.00;;;1.40;;
5841;SDS011;2947;52.276;9.946;2022-09-27T00:05:19;3.53;;;1.70;;
5841;SDS011;2947;52.276;9.946;2022-09-27T00:07:45;2.30;;;1.30;;
5841;SDS011;2947;52.276;9.946;2022-09-27T00:10:11;2.80;;;1.20;;
5841;SDS011;2947;52.276;9.946;2022-09-27T00:12:37;2.10;;;1.20;;
5841;SDS011;2947;52.276;9.946;2022-09-27T00:15:03;2.63;;;1.47;;
5841;SDS011;2947;52.276;9.946;2022-09-27T00:17:31;2.20;;;1.47;;
5841;SDS011;2947;52.276;9.946;2022-09-27T00:20:00;2.33;;;0.97;;
5841;SDS011;2947;52.276;9.946;2022-09-27T00:22:27;1.93;;;1.40;;
5841;SDS011;2947;52.276;9.946;2022-09-27T00:24:53;3.10;;;1.53;;
5841;SDS011;2947;52.276;9.946;2022-09-27T00:27:19;2.93;;;1.30;;
5841;SDS011;2947;52.276;9.946;2022-09-27T00:29:45;4.20;;;1.20;;
5841;SDS011;2947;52.276;9.946;2022-09-27T00:32:12;1.70;;;1.17;;
5841;SDS011;2947;52.276;9.946;2022-09-27T00:34:39;7.70;;;1.07;;
5841;SDS011;2947;52.276;9.946;2022-09-27T00:37:06;2.00;;;1.00;;
5841;SDS011;2947;52.276;9.946;2022-09-27T00:39:33;1.80;;;1.00;;
5841;SDS011;2947;52.276;9.946;2022-09-27T00:41:58;3.90;;;1.53;;
5841;SDS011;2947;52.276;9.946;2022-09-27T00:46:56;1.90;;;1.07;;
5841;SDS011;2947;52.276;9.946;2022-09-27T00:49:27;2.63;;;1.20;;
5841;SDS011;2947;52.276;9.946;2022-09-27T00:52:02;4.10;;;1.17;;
5841;SDS011;2947;52.276;9.946;2022-09-27T00:54:33;2.17;;;1.10;;
5841;SDS011;2947;52.276;9.946;2022-09-27T00:57:03;1.80;;;0.83;;
5841;SDS011;2947;52.276;9.946;2022-09-27T00:59:32;1.73;;;1.03;;
5841;SDS011;2947;52.276;9.946;2022-09-27T01:02:22;2.57;;;1.20;;
5841;SDS011;2947;52.276;9.946;2022-09-27T01:04:47;2.27;;;1.17;;
5841;SDS011;2947;52.276;9.946;2022-09-27T01:07:13;2.10;;;1.00;;
5841;SDS011;2947;52.276;9.946;2022-09-27T01:09:39;2.70;;;1.30;;
5841;SDS011;2947;52.276;9.946;2022-09-27T01:15:41;2.40;;;1.00;;
5841;SDS011;2947;52.276;9.946;2022-09-27T01:23:52;2.13;;;1.10;;
5841;SDS011;2947;52.276;9.946;2022-09-27T01:29:42;3.03;;;1.20;;
5841;SDS011;2947;52.276;9.946;2022-09-27T01:32:51;2.83;;;1.07;;
5841;SDS011;2947;52.276;9.946;2022-09-27T01:35:34;1.90;;;1.00;;
5841;SDS011;2947;52.276;9.946;2022-09-27T01:38:29;2.40;;;1.50;;
5841;SDS011;2947;52.276;9.946;2022-09-27T01:44:02;2.43;;;1.60;;
5841;SDS011;2947;52.276;9.946;2022-09-27T01:46:45;3.00;;;1.60;;
5841;SDS011;2947;52.276;9.946;2022-09-27T01:49:18;2.93;;;1.70;;
5841;SDS011;2947;52.276;9.946;2022-09-27T01:52:07;4.13;;;1.70;;
5841;SDS011;2947;52.276;9.946;2022-09-27T01:54:37;2.50;;;1.43;;
5841;SDS011;2947;52.276;9.946;2022-09-27T01:57:08;2.90;;;1.47;;
5841;SDS011;2947;52.276;9.946;2022-09-27T01:59:42;3.07;;;1.60;;
5841;SDS011;2947;52.276;9.946;2022-09-27T02:02:24;2.60;;;1.80;;
5841;SDS011;2947;52.276;9.946;2022-09-27T02:04:52;2.20;;;1.50;;
5841;SDS011;2947;52.276;9.946;2022-09-27T02:07:29;3.00;;;2.07;;
5841;SDS011;2947;52.276;9.946;2022-09-27T02:10:04;3.20;;;2.10;;
5841;SDS011;2947;52.276;9.946;2022-09-27T02:18:22;4.33;;;2.10;;
5841;SDS011;2947;52.276;9.946;2022-09-27T02:21:06;2.90;;;1.90;;
5841;SDS011;2947;52.276;9.946;2022-09-27T02:23:40;6.07;;;2.27;;
5841;SDS011;2947;52.276;9.946;2022-09-27T02:26:18;3.53;;;1.90;;
5841;SDS011;2947;52.276;9.946;2022-09-27T02:31:26;3.87;;;2.10;;
5841;SDS011;2947;52.276;9.946;2022-09-27T02:33:53;4.90;;;2.17;;
5841;SDS011;2947;52.276;9.946;2022-09-27T02:36:48;3.70;;;1.97;;
5841;SDS011;2947;52.276;9.946;2022-09-27T02:39:17;3.40;;;2.40;;
5841;SDS011;2947;52.276;9.946;2022-09-27T02:41:44;2.87;;;1.83;;
5841;SDS011;2947;52.276;9.946;2022-09-27T02:44:10;4.80;;;2.00;;
5841;SDS011;2947;52.276;9.946;2022-09-27T02:56:09;4.40;;;2.17;;
5841;SDS011;2947;52.276;9.946;2022-09-27T02:59:01;6.77;;;2.37;;
5841;SDS011;2947;52.276;9.946;2022-09-27T03:04:26;4.27;;;2.23;;
5841;SDS011;2947;52.276;9.946;2022-09-27T03:06:59;6.50;;;2.73;;
5841;SDS011;2947;52.276;9.946;2022-09-27T03:09:38;4.37;;;3.10;;
5841;SDS011;2947;52.276;9.946;2022-09-27T03:12:07;6.50;;;3.23;;
5841;SDS011;2947;52.276;9.946;2022-09-27T03:14:32;6.33;;;3.10;;
5841;SDS011;2947;52.276;9.946;2022-09-27T03:16:58;7.43;;;2.93;;
5841;SDS011;2947;52.276;9.946;2022-09-27T03:19:24;8.30;;;2.90;;
5841;SDS011;2947;52.276;9.946;2022-09-27T03:21:49;7.93;;;2.90;;
5841;SDS011;2947;52.276;9.946;2022-09-27T03:24:15;5.73;;;2.70;;
5841;SDS011;2947;52.276;9.946;2022-09-27T03:26:41;4.60;;;3.20;;
5841;SDS011;2947;52.276;9.946;2022-09-27T03:29:07;8.27;;;3.60;;
5841;SDS011;2947;52.276;9.946;2022-09-27T03:31:32;8.87;;;3.80;;
5841;SDS011;2947;52.276;9.946;2022-09-27T03:33:58;8.40;;;3.67;;
5841;SDS011;2947;52.276;9.946;2022-09-27T03:36:24;8.20;;;4.33;;
5841;SDS011;2947;52.276;9.946;2022-09-27T03:38:49;5.70;;;3.23;;
5841;SDS011;2947;52.276;9.946;2022-09-27T03:41:15;9.77;;;3.77;;
5841;SDS011;2947;52.276;9.946;2022-09-27T03:43:41;11.70;;;3.60;;
5841;SDS011;2947;52.276;9.946;2022-09-27T03:46:06;6.23;;;3.20;;
5841;SDS011;2947;52.276;9.946;2022-09-27T03:48:32;5.20;;;3.00;;
5841;SDS011;2947;52.276;9.946;2022-09-27T03:50:58;8.93;;;3.07;;
5841;SDS011;2947;52.276;9.946;2022-09-27T03:53:24;6.43;;;3.70;;
5841;SDS011;2947;52.276;9.946;2022-09-27T03:55:49;11.00;;;3.23;;
5841;SDS011;2947;52.276;9.946;2022-09-27T03:58:15;6.23;;;2.70;;
5841;SDS011;2947;52.276;9.946;2022-09-27T04:00:41;5.53;;;2.73;;
5841;SDS011;2947;52.276;9.946;2022-09-27T04:03:08;5.17;;;2.80;;
5841;SDS011;2947;52.276;9.946;2022-09-27T04:05:33;6.63;;;3.10;;
5841;SDS011;2947;52.276;9.946;2022-09-27T04:07:59;6.37;;;3.10;;
5841;SDS011;2947;52.276;9.946;2022-09-27T04:10:25;4.87;;;2.97;;
5841;SDS011;2947;52.276;9.946;2022-09-27T04:12:51;4.40;;;2.90;;
5841;SDS011;2947;52.276;9.946;2022-09-27T04:15:16;4.40;;;3.30;;
5841;SDS011;2947;52.276;9.946;2022-09-27T04:17:42;8.10;;;3.07;;
5841;SDS011;2947;52.276;9.946;2022-09-27T04:20:09;11.30;;;4.33;;
5841;SDS011;2947;52.276;9.946;2022-09-27T04:22:39;7.90;;;4.00;;
5841;SDS011;2947;52.276;9.946;2022-09-27T04:25:08;4.10;;;3.00;;
5841;SDS011;2947;52.276;9.946;2022-09-27T04:27:34;5.13;;;2.80;;
5841;SDS011;2947;52.276;9.946;2022-09-27T04:30:00;6.03;;;3.17;;
5841;SDS011;2947;52.276;9.946;2022-09-27T04:32:26;5.87;;;3.30;;
5841;SDS011;2947;52.276;9.946;2022-09-27T04:34:52;5.57;;;3.37;;
5841;SDS011;2947;52.276;9.946;2022-09-27T04:37:36;6.67;;;3.00;;
5841;SDS011;2947;52.276;9.946;2022-09-27T04:40:02;7.33;;;3.10;;
5841;SDS011;2947;52.276;9.946;2022-09-27T04:42:29;13.50;;;3.37;;
5841;SDS011;2947;52.276;9.946;2022-09-27T04:44:55;8.67;;;3.50;;
5841;SDS011;2947;52.276;9.946;2022-09-27T04:47:20;9.93;;;4.00;;
5841;SDS011;2947;52.276;9.946;2022-09-27T04:49:46;7.00;;;4.30;;
5841;SDS011;2947;52.276;9.946;2022-09-27T04:52:13;13.93;;;4.47;;
5841;SDS011;2947;52.276;9.946;2022-09-27T04:54:39;9.40;;;4.23;;
5841;SDS011;2947;52.276;9.946;2022-09-27T04:57:06;7.20;;;3.57;;
5841;SDS011;2947;52.276;9.946;2022-09-27T04:59:32;5.90;;;3.80;;
5841;SDS011;2947;52.276;9.946;2022-09-27T05:01:58;8.67;;;5.23;;
5841;SDS011;2947;52.276;9.946;2022-09-27T05:04:24;8.77;;;4.67;;
5841;SDS011;2947;52.276;9.946;2022-09-27T05:06:50;8.30;;;4.33;;
5841;SDS011;2947;52.276;9.946;2022-09-27T05:09:16;9.53;;;4.20;;
5841;SDS011;2947;52.276;9.946;2022-09-27T05:11:42;9.40;;;4.50;;
5841;SDS011;2947;52.276;9.946;2022-09-27T05:14:08;8.47;;;5.20;;
5841;SDS011;2947;52.276;9.946;2022-09-27T05:16:33;10.87;;;4.90;;
5841;SDS011;2947;52.276;9.946;2022-09-27T05:19:00;10.17;;;4.37;;
5841;SDS011;2947;52.276;9.946;2022-09-27T05:21:27;9.30;;;3.93;;
5841;SDS011;2947;52.276;9.946;2022-09-27T05:23:53;10.80;;;4.67;;
5841;SDS011;2947;52.276;9.946;2022-09-27T05:26:19;7.00;;;3.57;;
5841;SDS011;2947;52.276;9.946;2022-09-27T05:28:45;5.93;;;3.40;;
5841;SDS011;2947;52.276;9.946;2022-09-27T05:31:11;7.23;;;2.80;;
5841;SDS011;2947;52.276;9.946;2022-09-27T05:33:38;6.10;;;3.17;;
5841;SDS011;2947;52.276;9.946;2022-09-27T05:36:04;8.50;;;3.10;;
5841;SDS011;2947;52.276;9.946;2022-09-27T05:38:31;9.40;;;3.30;;
5841;SDS011;2947;52.276;9.946;2022-09-27T05:40:57;5.73;;;3.07;;
5841;SDS011;2947;52.276;9.946;2022-09-27T05:43:22;5.97;;;2.73;;
5841;SDS011;2947;52.276;9.946;2022-09-27T05:45:49;9.00;;;2.57;;
5841;SDS011;2947;52.276;9.946;2022-09-27T05:48:16;8.80;;;2.20;;
5841;SDS011;2947;52.276;9.946;2022-09-27T05:50:42;6.50;;;2.83;;
5841;SDS011;2947;52.276;9.946;2022-09-27T05:53:08;5.47;;;2.07;;
5841;SDS011;2947;52.276;9.946;2022-09-27T05:55:35;7.70;;;2.57;;
5841;SDS011;2947;52.276;9.946;2022-09-27T05:58:02;7.20;;;2.90;;
5841;SDS011;2947;52.276;9.946;2022-09-27T06:00:32;5.77;;;2.77;;
5841;SDS011;2947;52.276;9.946;2022-09-27T06:03:00;7.67;;;2.63;;
5841;SDS011;2947;52.276;9.946;2022-09-27T06:05:30;5.47;;;2.70;;
5841;SDS011;2947;52.276;9.946;2022-09-27T06:08:01;6.70;;;3.00;;
5841;SDS011;2947;52.276;9.946;2022-09-27T06:10:32;6.67;;;3.20;;
5841;SDS011;2947;52.276;9.946;2022-09-27T06:12:59;5.43;;;3.20;;
5841;SDS011;2947;52.276;9.946;2022-09-27T06:15:27;8.43;;;3.13;;
5841;SDS011;2947;52.276;9.946;2022-09-27T06:17:54;5.20;;;2.77;;
5841;SDS011;2947;52.276;9.946;2022-09-27T06:20:20;8.67;;;4.10;;
5841;SDS011;2947;52.276;9.946;2022-09-27T06:22:46;7.73;;;3.27;;
5841;SDS011;2947;52.276;9.946;2022-09-27T06:25:12;7.57;;;3.17;;
5841;SDS011;2947;52.276;9.946;2022-09-27T06:27:38;9.90;;;3.80;;
5841;SDS011;2947;52.276;9.946;2022-09-27T06:30:04;11.33;;;3.67;;
5841;SDS011;2947;52.276;9.946;2022-09-27T06:32:30;9.30;;;3.63;;
5841;SDS011;2947;52.276;9.946;2022-09-27T06:34:56;9.27;;;3.60;;
5841;SDS011;2947;52.276;9.946;2022-09-27T06:37:25;7.43;;;3.37;;
5841;SDS011;2947;52.276;9.946;2022-09-27T06:39:51;5.80;;;3.20;;
5841;SDS011;2947;52.276;9.946;2022-09-27T06:42:18;7.30;;;3.20;;
5841;SDS011;2947;52.276;9.946;2022-09-27T06:44:44;8.23;;;3.40;;
5841;SDS011;2947;52.276;9.946;2022-09-27T06:47:14;11.57;;;3.37;;
5841;SDS011;2947;52.276;9.946;2022-09-27T06:49:41;6.30;;;3.47;;
5841;SDS011;2947;52.276;9.946;2022-09-27T06:52:07;6.60;;;3.10;;
5841;SDS011;2947;52.276;9.946;2022-09-27T06:54:32;4.90;;;2.77;;
5841;SDS011;2947;52.276;9.946;2022-09-27T06:56:58;8.23;;;2.50;;
5841;SDS011;2947;52.276;9.946;2022-09-27T06:59:24;6.80;;;3.07;;
5841;SDS011;2947;52.276;9.946;2022-09-27T07:02:08;7.13;;;3.20;;
5841;SDS011;2947;52.276;9.946;2022-09-27T07:04:34;11.07;;;3.20;;
5841;SDS011;2947;52.276;9.946;2022-09-27T07:07:00;8.40;;;3.20;;
5841;SDS011;2947;52.276;9.946;2022-09-27T07:09:26;7.33;;;3.90;;
5841;SDS011;2947;52.276;9.946;2022-09-27T07:11:51;8.17;;;3.83;;
5841;SDS011;2947;52.276;9.946;2022-09-27T07:14:19;10.77;;;4.57;;
5841;SDS011;2947;52.276;9.946;2022-09-27T07:16:45;10.83;;;4.90;;
5841;SDS011;2947;52.276;9.946;2022-09-27T07:19:12;8.40;;;4.03;;
5841;SDS011;2947;52.276;9.946;2022-09-27T07:21:39;8.73;;;3.43;;
5841;SDS011;2947;52.276;9.946;2022-09-27T07:24:04;9.10;;;3.87;;
5841;SDS011;2947;52.276;9.946;2022-09-27T07:26:30;7.37;;;3.80;;
5841;SDS011;2947;52.276;9.946;2022-09-27T07:28:56;7.43;;;3.60;;
5841;SDS011;2947;52.276;9.946;2022-09-27T07:31:22;11.70;;;6.87;;
5841;SDS011;2947;52.276;9.946;2022-09-27T07:33:48;9.57;;;3.97;;
5841;SDS011;2947;52.276;9.946;2022-09-27T07:36:14;8.47;;;4.13;;
5841;SDS011;2947;52.276;9.946;2022-09-27T07:38:40;8.10;;;3.80;;
5841;SDS011;2947;52.276;9.946;2022-09-27T07:41:07;7.23;;;3.97;;
5841;SDS011;2947;52.276;9.946;2022-09-27T07:43:37;7.30;;;4.20;;
5841;SDS011;2947;52.276;9.946;2022-09-27T07:46:02;11.10;;;4.70;;
5841;SDS011;2947;52.276;9.946;2022-09-27T07:48:28;6.90;;;3.73;;
5841;SDS011;2947;52.276;9.946;2022-09-27T07:50:54;8.40;;;4.00;;
5841;SDS011;2947;52.276;9.946;2022-09-27T07:53:20;5.97;;;3.33;;
5841;SDS011;2947;52.276;9.946;2022-09-27T07:55:51;6.13;;;3.43;;
5841;SDS011;2947;52.276;9.946;2022-09-27T07:58:18;9.33;;;4.13;;
5841;SDS011;2947;52.276;9.946;2022-09-27T08:00:45;6.70;;;3.47;;
5841;SDS011;2947;52.276;9.946;2022-09-27T08:03:12;6.80;;;3.20;;
5841;SDS011;2947;52.276;9.946;2022-09-27T08:05:40;10.00;;;3.17;;
5841;SDS011;2947;52.276;9.946;2022-09-27T08:08:08;7.70;;;2.63;;
5841;SDS011;2947;52.276;9.946;2022-09-27T08:10:34;7.20;;;2.80;;
5841;SDS011;2947;52.276;9.946;2022-09-27T08:13:00;5.07;;;3.00;;
5841;SDS011;2947;52.276;9.946;2022-09-27T08:15:28;7.43;;;3.70;;
5841;SDS011;2947;52.276;9.946;2022-09-27T08:17:59;5.80;;;3.00;;
5841;SDS011;2947;52.276;9.946;2022-09-27T08:20:25;6.13;;;2.93;;
5841;SDS011;2947;52.276;9.946;2022-09-27T08:22:51;4.03;;;2.50;;
5841;SDS011;2947;52.276;9.946;2022-09-27T08:25:16;7.10;;;3.60;;
5841;SDS011;2947;52.276;9.946;2022-09-27T08:27:42;4.97;;;3.00;;
5841;SDS011;2947;52.276;9.946;2022-09-27T08:30:08;4.30;;;2.30;;
5841;SDS011;2947;52.276;9.946;2022-09-27T08:32:34;4.63;;;2.50;;
5841;SDS011;2947;52.276;9.946;2022-09-27T08:35:02;5.10;;;1.97;;
5841;SDS011;2947;52.276;9.946;2022-09-27T08:37:28;7.90;;;2.03;;
5841;SDS011;2947;52.276;9.946;2022-09-27T08:39:54;5.67;;;2.40;;
5841;SDS011;2947;52.276;9.946;2022-09-27T08:45:21;3.97;;;2.07;;
5841;SDS011;2947;52.276;9.946;2022-09-27T08:47:58;4.90;;;2.40;;
5841;SDS011;2947;52.276;9.946;2022-09-27T08:50:27;5.77;;;2.33;;
5841;SDS011;2947;52.276;9.946;2022-09-27T08:55:39;4.20;;;1.93;;
5841;SDS011;2947;52.276;9.946;2022-09-27T09:00:55;6.67;;;1.97;;
5841;SDS011;2947;52.276;9.946;2022-09-27T09:03:27;2.80;;;1.77;;
5841;SDS011;2947;52.276;9.946;2022-09-27T09:16:11;2.40;;;1.80;;
5841;SDS011;2947;52.276;9.946;2022-09-27T09:32:49;1.53;;;1.03;;
5841;SDS011;2947;52.276;9.946;2022-09-27T09:35:35;5.07;;;1.43;;
5841;SDS011;2947;52.276;9.946;2022-09-27T09:38:35;7.03;;;1.37;;
5841;SDS011;2947;52.276;9.946;2022-09-27T09:41:10;3.63;;;1.30;;
5841;SDS011;2947;52.276;9.946;2022-09-27T09:49:23;7.20;;;1.17;;
5841;SDS011;2947;52.276;9.946;2022-09-27T09:51:52;2.73;;;1.17;;
5841;SDS011;2947;52.276;9.946;2022-09-27T09:54:31;4.30;;;1.60;;
5841;SDS011;2947;52.276;9.946;2022-09-27T09:57:22;4.73;;;1.30;;
5841;SDS011;2947;52.276;9.946;2022-09-27T10:02:36;7.23;;;1.30;;
5841;SDS011;2947;52.276;9.946;2022-09-27T10:05:05;1.93;;;1.07;;
5841;SDS011;2947;52.276;9.946;2022-09-27T10:07:32;4.40;;;2.47;;
5841;SDS011;2947;52.276;9.946;2022-09-27T10:10:01;5.57;;;2.03;;
5841;SDS011;2947;52.276;9.946;2022-09-27T10:12:30;3.23;;;1.27;;
5841;SDS011;2947;52.276;9.946;2022-09-27T10:14:57;2.47;;;0.90;;
5841;SDS011;2947;52.276;9.946;2022-09-27T10:17:36;2.77;;;1.33;;
5841;SDS011;2947;52.276;9.946;2022-09-27T10:20:06;4.80;;;1.20;;
5841;SDS011;2947;52.276;9.946;2022-09-27T10:22:50;5.70;;;1.20;;
5841;SDS011;2947;52.276;9.946;2022-09-27T10:25:20;4.80;;;1.40;;
5841;SDS011;2947;52.276;9.946;2022-09-27T10:27:47;2.20;;;1.20;;
5841;SDS011;2947;52.276;9.946;2022-09-27T10:30:24;3.47;;;1.50;;
5841;SDS011;2947;52.276;9.946;2022-09-27T10:33:05;5.33;;;1.80;;
5841;SDS011;2947;52.276;9.946;2022-09-27T10:35:41;3.30;;;1.10;;
5841;SDS011;2947;52.276;9.946;2022-09-27T10:40:41;7.60;;;1.10;;
5841;SDS011;2947;52.276;9.946;2022-09-27T10:43:24;3.47;;;1.07;;
5841;SDS011;2947;52.276;9.946;2022-09-27T10:49:07;3.07;;;1.13;;
5841;SDS011;2947;52.276;9.946;2022-09-27T10:51:56;3.00;;;0.80;;
5841;SDS011;2947;52.276;9.946;2022-09-27T10:54:28;2.20;;;0.90;;
5841;SDS011;2947;52.276;9.946;2022-09-27T10:59:39;2.93;;;0.70;;
5841;SDS011;2947;52.276;9.946;2022-09-27T11:02:19;2.83;;;0.90;;
5841;SDS011;2947;52.276;9.946;2022-09-27T11:05:28;5.23;;;0.80;;
5841;SDS011;2947;52.276;9.946;2022-09-27T11:07:59;3.67;;;1.00;;
5841;SDS011;2947;52.276;9.946;2022-09-27T11:10:43;1.50;;;0.70;;
5841;SDS011;2947;52.276;9.946;2022-09-27T11:13:31;4.00;;;1.10;;
5841;SDS011;2947;52.276;9.946;2022-09-27T11:16:03;3.45;;;1.38;;
5841;SDS011;2947;52.276;9.946;2022-09-27T11:21:52;3.53;;;0.80;;
5841;SDS011;2947;52.276;9.946;2022-09-27T11:33:31;5.88;;;1.00;;
5841;SDS011;2947;52.276;9.946;2022-09-27T11:42:32;2.60;;;0.80;;
5841;SDS011;2947;52.276;9.946;2022-09-27T11:54:44;1.40;;;0.50;;
5841;SDS011;2947;52.276;9.946;2022-09-27T11:57:21;1.57;;;0.60;;
5841;SDS011;2947;52.276;9.946;2022-09-27T12:14:19;2.90;;;0.70;;
5841;SDS011;2947;52.276;9.946;2022-09-27T12:16:57;2.53;;;0.57;;
5841;SDS011;2947;52.276;9.946;2022-09-27T12:19:37;1.67;;;0.60;;
5841;SDS011;2947;52.276;9.946;2022-09-27T12:22:11;4.77;;;0.83;;
5841;SDS011;2947;52.276;9.946;2022-09-27T12:24:40;3.13;;;0.70;;
5841;SDS011;2947;52.276;9.946;2022-09-27T12:27:09;6.73;;;1.10;;
5841;SDS011;2947;52.276;9.946;2022-09-27T12:29:41;2.20;;;0.70;;
5841;SDS011;2947;52.276;9.946;2022-09-27T12:32:19;4.50;;;0.60;;
5841;SDS011;2947;52.276;9.946;2022-09-27T12:34:53;1.20;;;0.50;;
5841;SDS011;2947;52.276;9.946;2022-09-27T12:37:35;1.20;;;0.53;;
5841;SDS011;2947;52.276;9.946;2022-09-27T12:40:24;1.33;;;0.60;;
5841;SDS011;2947;52.276;9.946;2022-09-27T12:48:30;1.80;;;0.50;;
5841;SDS011;2947;52.276;9.946;2022-09-27T12:51:17;1.30;;;0.50;;
5841;SDS011;2947;52.276;9.946;2022-09-27T12:53:50;1.67;;;0.60;;
5841;SDS011;2947;52.276;9.946;2022-09-27T12:59:53;4.30;;;0.50;;
5841;SDS011;2947;52.276;9.946;2022-09-27T13:13:56;1.90;;;0.60;;
5841;SDS011;2947;52.276;9.946;2022-09-27T13:16:24;2.33;;;0.60;;
5841;SDS011;2947;52.276;9.946;2022-09-27T13:18:51;1.70;;;0.53;;
5841;SDS011;2947;52.276;9.946;2022-09-27T13:32:32;1.50;;;0.80;;
5841;SDS011;2947;52.276;9.946;2022-09-27T13:35:20;1.97;;;0.60;;
5841;SDS011;2947;52.276;9.946;2022-09-27T13:37:55;2.13;;;0.60;;
5841;SDS011;2947;52.276;9.946;2022-09-27T13:40:33;2.40;;;0.77;;
5841;SDS011;2947;52.276;9.946;2022-09-27T13:43:04;2.80;;;0.80;;
5841;SDS011;2947;52.276;9.946;2022-09-27T13:45:38;1.20;;;0.50;;
5841;SDS011;2947;52.276;9.946;2022-09-27T13:48:08;1.30;;;0.60;;
5841;SDS011;2947;52.276;9.946;2022-09-27T13:55:54;1.37;;;0.60;;
5841;SDS011;2947;52.276;9.946;2022-09-27T14:01:40;1.80;;;0.60;;
5841;SDS011;2947;52.276;9.946;2022-09-27T14:04:13;1.20;;;0.50;;
5841;SDS011;2947;52.276;9.946;2022-09-27T14:06:59;1.63;;;0.50;;
5841;SDS011;2947;52.276;9.946;2022-09-27T14:09:37;1.50;;;0.50;;
5841;SDS011;2947;52.276;9.946;2022-09-27T14:12:09;1.93;;;0.83;;
5841;SDS011;2947;52.276;9.946;2022-09-27T14:14:56;1.40;;;0.70;;
5841;SDS011;2947;52.276;9.946;2022-09-27T14:17:24;1.40;;;0.50;;
5841;SDS011;2947;52.276;9.946;2022-09-27T14:19:50;1.20;;;0.53;;
5841;SDS011;2947;52.276;9.946;2022-09-27T14:22:18;1.50;;;0.60;;
5841;SDS011;2947;52.276;9.946;2022-09-27T14:24:49;1.53;;;0.73;;
5841;SDS011;2947;52.276;9.946;2022-09-27T14:27:27;2.70;;;0.60;;
5841;SDS011;2947;52.276;9.946;2022-09-27T14:30:00;1.50;;;0.70;;
5841;SDS011;2947;52.276;9.946;2022-09-27T14:32:46;1.50;;;0.60;;
5841;SDS011;2947;52.276;9.946;2022-09-27T14:35:17;2.43;;;0.67;;
5841;SDS011;2947;52.276;9.946;2022-09-27T14:38:15;2.80;;;0.50;;
5841;SDS011;2947;52.276;9.946;2022-09-27T14:41:03;1.37;;;0.67;;
5841;SDS011;2947;52.276;9.946;2022-09-27T14:43:35;2.23;;;0.60;;
5841;SDS011;2947;52.276;9.946;2022-09-27T14:46:20;4.50;;;0.70;;
5841;SDS011;2947;52.276;9.946;2022-09-27T14:48:54;3.50;;;0.73;;
5841;SDS011;2947;52.276;9.946;2022-09-27T14:51:25;1.80;;;0.70;;
5841;SDS011;2947;52.276;9.946;2022-09-27T14:53:54;4.53;;;1.00;;
5841;SDS011;2947;52.276;9.946;2022-09-27T14:56:31;2.87;;;0.83;;
5841;SDS011;2947;52.276;9.946;2022-09-27T14:59:01;1.97;;;0.80;;
5841;SDS011;2947;52.276;9.946;2022-09-27T15:01:32;3.60;;;0.90;;
5841;SDS011;2947;52.276;9.946;2022-09-27T15:04:02;1.30;;;0.50;;
5841;SDS011;2947;52.276;9.946;2022-09-27T15:06:31;2.70;;;0.70;;
5841;SDS011;2947;52.276;9.946;2022-09-27T15:09:00;1.17;;;0.43;;
5841;SDS011;2947;52.276;9.946;2022-09-27T15:11:28;1.20;;;0.53;;
5841;SDS011;2947;52.276;9.946;2022-09-27T15:13:57;1.30;;;0.50;;
5841;SDS011;2947;52.276;9.946;2022-09-27T15:16:25;1.20;;;0.50;;
5841;SDS011;2947;52.276;9.946;2022-09-27T15:19:02;1.50;;;0.60;;
5841;SDS011;2947;52.276;9.946;2022-09-27T15:21:41;1.70;;;0.60;;
5841;SDS011;2947;52.276;9.946;2022-09-27T15:24:32;1.70;;;0.70;;
5841;SDS011;2947;52.276;9.946;2022-09-27T15:27:13;2.20;;;0.63;;
5841;SDS011;2947;52.276;9.946;2022-09-27T15:29:46;3.90;;;0.60;;
5841;SDS011;2947;52.276;9.946;2022-09-27T15:32:19;3.83;;;0.70;;
5841;SDS011;2947;52.276;9.946;2022-09-27T15:34:50;1.30;;;0.60;;
5841;SDS011;2947;52.276;9.946;2022-09-27T15:37:37;1.50;;;0.60;;
5841;SDS011;2947;52.276;9.946;2022-09-27T15:40:55;1.50;;;1.03;;
5841;SDS011;2947;52.276;9.946;2022-09-27T15:43:21;1.20;;;0.50;;
5841;SDS011;2947;52.276;9.946;2022-09-27T15:46:26;1.73;;;0.60;;
5841;SDS011;2947;52.276;9.946;2022-09-27T15:49:17;2.00;;;0.87;;
5841;SDS011;2947;52.276;9.946;2022-09-27T15:51:58;2.53;;;0.60;;
5841;SDS011;2947;52.276;9.946;2022-09-27T15:54:27;1.80;;;0.90;;
5841;SDS011;2947;52.276;9.946;2022-09-27T15:56:55;2.77;;;0.80;;
5841;SDS011;2947;52.276;9.946;2022-09-27T15:59:28;2.07;;;0.80;;
5841;SDS011;2947;52.276;9.946;2022-09-27T16:01:59;1.60;;;0.70;;
5841;SDS011;2947;52.276;9.946;2022-09-27T16:04:27;2.27;;;1.17;;
5841;SDS011;2947;52.276;9.946;2022-09-27T16:06:56;3.60;;;0.63;;
5841;SDS011;2947;52.276;9.946;2022-09-27T16:09:25;2.47;;;0.60;;
5841;SDS011;2947;52.276;9.946;2022-09-27T16:11:51;1.97;;;1.03;;
5841;SDS011;2947;52.276;9.946;2022-09-27T16:14:16;2.07;;;1.03;;
5841;SDS011;2947;52.276;9.946;2022-09-27T16:16:50;2.93;;;1.20;;
5841;SDS011;2947;52.276;9.946;2022-09-27T16:19:18;1.97;;;0.80;;
5841;SDS011;2947;52.276;9.946;2022-09-27T16:21:44;1.77;;;0.80;;
5841;SDS011;2947;52.276;9.946;2022-09-27T16:24:12;2.83;;;0.90;;
5841;SDS011;2947;52.276;9.946;2022-09-27T16:26:38;2.07;;;0.90;;
5841;SDS011;2947;52.276;9.946;2022-09-27T16:29:08;1.97;;;0.87;;
5841;SDS011;2947;52.276;9.946;2022-09-27T16:31:36;2.53;;;0.70;;
5841;SDS011;2947;52.276;9.946;2022-09-27T16:34:03;2.47;;;0.70;;
5841;SDS011;2947;52.276;9.946;2022-09-27T16:36:28;1.43;;;0.67;;
5841;SDS011;2947;52.276;9.946;2022-09-27T16:38:54;1.60;;;0.70;;
5841;SDS011;2947;52.276;9.946;2022-09-27T16:41:20;3.70;;;1.07;;
5841;SDS011;2947;52.276;9.946;2022-09-27T16:43:47;1.40;;;0.60;;
5841;SDS011;2947;52.276;9.946;2022-09-27T16:46:13;1.93;;;0.80;;
5841;SDS011;2947;52.276;9.946;2022-09-27T16:48:43;1.53;;;0.87;;
5841;SDS011;2947;52.276;9.946;2022-09-27T16:51:17;2.40;;;1.00;;
5841;SDS011;2947;52.276;9.946;2022-09-27T16:54:04;4.70;;;1.17;;
5841;SDS011;2947;52.276;9.946;2022-09-27T16:56:31;2.70;;;1.13;;
5841;SDS011;2947;52.276;9.946;2022-09-27T16:58:58;5.10;;;0.80;;
5841;SDS011;2947;52.276;9.946;2022-09-27T17:01:27;3.10;;;1.13;;
5841;SDS011;2947;52.276;9.946;2022-09-27T17:03:53;2.10;;;1.00;;
5841;SDS011;2947;52.276;9.946;2022-09-27T17:06:21;3.03;;;1.17;;
5841;SDS011;2947;52.276;9.946;2022-09-27T17:08:47;2.93;;;1.43;;
5841;SDS011;2947;52.276;9.946;2022-09-27T17:11:13;1.70;;;1.07;;
5841;SDS011;2947;52.276;9.946;2022-09-27T17:13:42;2.17;;;1.10;;
5841;SDS011;2947;52.276;9.946;2022-09-27T17:16:09;2.87;;;1.33;;
5841;SDS011;2947;52.276;9.946;2022-09-27T17:18:37;2.50;;;1.13;;
5841;SDS011;2947;52.276;9.946;2022-09-27T17:21:04;2.30;;;1.20;;
5841;SDS011;2947;52.276;9.946;2022-09-27T17:23:32;5.10;;;1.07;;
5841;SDS011;2947;52.276;9.946;2022-09-27T17:26:06;2.00;;;1.10;;
5841;SDS011;2947;52.276;9.946;2022-09-27T17:28:40;2.40;;;0.83;;
5841;SDS011;2947;52.276;9.946;2022-09-27T17:31:07;1.70;;;1.07;;
5841;SDS011;2947;52.276;9.946;2022-09-27T17:33:45;2.30;;;1.30;;
5841;SDS011;2947;52.276;9.946;2022-09-27T17:36:13;2.87;;;1.27;;
5841;SDS011;2947;52.276;9.946;2022-09-27T17:38:49;2.27;;;0.80;;
5841;SDS011;2947;52.276;9.946;2022-09-27T17:41:17;2.63;;;1.00;;
5841;SDS011;2947;52.276;9.946;2022-09-27T17:43:45;3.00;;;0.97;;
5841;SDS011;2947;52.276;9.946;2022-09-27T17:46:14;2.17;;;0.80;;
5841;SDS011;2947;52.276;9.946;2022-09-27T17:48:42;2.03;;;0.97;;
5841;SDS011;2947;52.276;9.946;2022-09-27T17:51:27;2.53;;;0.93;;
5841;SDS011;2947;52.276;9.946;2022-09-27T17:53:53;1.50;;;0.73;;
5841;SDS011;2947;52.276;9.946;2022-09-27T17:56:19;2.30;;;0.70;;
5841;SDS011;2947;52.276;9.946;2022-09-27T17:58:46;4.07;;;1.00;;
5841;SDS011;2947;52.276;9.946;2022-09-27T18:01:15;1.37;;;0.63;;
5841;SDS011;2947;52.276;9.946;2022-09-27T18:03:42;2.30;;;1.00;;
5841;SDS011;2947;52.276;9.946;2022-09-27T18:06:09;1.50;;;0.70;;
5841;SDS011;2947;52.276;9.946;2022-09-27T18:08:37;1.90;;;0.97;;
5841;SDS011;2947;52.276;9.946;2022-09-27T18:11:14;4.20;;;1.03;;
5841;SDS011;2947;52.276;9.946;2022-09-27T18:13:43;3.27;;;1.50;;
5841;SDS011;2947;52.276;9.946;2022-09-27T18:18:38;2.20;;;1.07;;
5841;SDS011;2947;52.276;9.946;2022-09-27T18:21:07;1.93;;;0.80;;
5841;SDS011;2947;52.276;9.946;2022-09-27T18:23:36;3.63;;;1.37;;
5841;SDS011;2947;52.276;9.946;2022-09-27T18:26:02;2.00;;;1.20;;
5841;SDS011;2947;52.276;9.946;2022-09-27T18:28:32;2.00;;;1.10;;
5841;SDS011;2947;52.276;9.946;2022-09-27T18:31:05;1.97;;;0.97;;